Airfield :
LOGIN :

Register | Disclaimer

   EN    FR    IT 

 










Legend :    VFR   Marginal VFR   IFR   Intensive IFR   Very Intensive IFR
Visi :
Ceiling :
>= 8 km
>= 3000ft
5 to 8 km
1000 to 3000 ft
1500m to 5 km
500 to 1000 ft
800 to 1500m
200 to 500 ft
< 800m
< 200 ft
Symbols :   Thunderstorms  Fog  Heavy snow  Heavy precipitations  Wind > 20 kt
SIGMETs :     Misc.  Thunderstorms  Icing  Turbulence  Mountain Waves  Volcanic Ashes






- Airport Elevation : 296 ft
- IATA code : GKE


ETNG - Geilenkirchen

CURRENT METAR :
  • 190350Z 22012G27KT 9999 SCT034 BKN090 05/02 Q1013

EXPIRED METARs :
  • 190250Z 21010KT 9999 SCT034 BKN110 05/02 Q1015
  • 190150Z 22011G23KT 9999 SCT041 BKN140 05/02 Q1016

TAF TAF ETNG
Valid from the 19 at 03:00 until the 19 at 18:00 UTC


190200Z 1903/1918 22012G22KT CAVOK
BECMG 1903/1905 22015G28KT 7000 -RADZ BKN030
BECMG 1905/1907 23017G33KT BKN012
PROB40
TEMPO 1908/1911 23020G39KT 3500 RADZ BKN008
BECMG 1911/1913 9999 NSW
PROB30
TEMPO 1911/1917 6000 -RADZ BKN010
BECMG 1915/1917 23015G30KT



MET'MAP, your aeronautical weather chart ! - Copyright ORBIFLY December 2007 - Disclaimer

ORBIFLY MET'MAP TEAM :

Programming & Development : Alexandra Zaïnal
Concept & original design : Baudouin d'Aumeries
Assistance for programming : Marc-Olivier Méhu
Technical & hardware support : Manuel Goepfert

Contact : metmap@orbifly.com




SOURCES & CREDITS :

   NOAA